createdAt,value
2022-09-14T12:31:32.969Z,4.00
2022-09-14T12:34:05.961Z,3.83
2022-09-14T12:36:37.138Z,3.40
2022-09-14T12:39:19.781Z,2.92
2022-09-14T12:41:46.402Z,3.15
2022-09-14T12:44:29.262Z,3.25
2022-09-14T12:46:56.077Z,3.53
2022-09-14T12:49:29.330Z,3.63
2022-09-14T12:51:57.573Z,3.05
2022-09-14T12:55:03.538Z,3.25
2022-09-14T12:58:02.064Z,3.20
2022-09-14T13:00:35.565Z,2.90
2022-09-14T13:03:42.248Z,3.28
2022-09-14T13:06:13.622Z,2.85
2022-09-14T13:08:45.260Z,2.80
2022-09-14T13:11:23.362Z,2.92
2022-09-14T13:13:51.029Z,2.40
2022-09-14T13:16:40.618Z,2.20
2022-09-14T13:19:20.330Z,2.20
2022-09-14T13:21:49.291Z,2.65
2022-09-14T13:24:29.504Z,2.35
2022-09-14T13:26:59.363Z,2.70
2022-09-14T13:29:27.995Z,2.15
2022-09-14T13:32:01.011Z,2.38
2022-09-14T13:34:33.889Z,1.88
2022-09-14T13:37:01.729Z,1.73
2022-09-14T13:39:33.034Z,1.90
2022-09-14T13:42:00.508Z,2.20
2022-09-14T13:44:35.750Z,2.10
2022-09-14T13:47:05.377Z,2.35
2022-09-14T13:49:33.987Z,2.00
2022-09-14T13:52:43.110Z,2.20
2022-09-14T13:55:24.628Z,1.83
2022-09-14T13:58:09.682Z,1.77
2022-09-14T14:01:00.170Z,2.42
2022-09-14T14:03:53.674Z,1.63
2022-09-14T14:06:29.323Z,1.65
2022-09-14T14:09:03.413Z,1.88
2022-09-14T14:11:37.375Z,1.25
2022-09-14T14:14:20.391Z,1.50
2022-09-14T14:17:25.659Z,1.60
2022-09-14T14:19:54.788Z,1.30
2022-09-14T14:22:48.251Z,1.52
2022-09-14T14:25:19.714Z,1.40
2022-09-14T14:27:47.877Z,1.33
2022-09-14T14:30:21.667Z,1.25
2022-09-14T14:32:52.882Z,1.20
2022-09-14T14:35:22.557Z,2.63
2022-09-14T14:37:50.654Z,1.77
2022-09-14T14:40:18.908Z,2.22
2022-09-14T14:42:46.398Z,1.60
2022-09-14T14:45:18.852Z,1.30
2022-09-14T14:47:50.571Z,1.08
2022-09-14T14:50:20.817Z,1.30
2022-09-14T14:52:47.676Z,1.50
2022-09-14T14:55:14.790Z,1.42
2022-09-14T14:57:41.512Z,1.13
2022-09-14T15:00:15.290Z,1.50
2022-09-14T15:02:42.394Z,1.15
2022-09-14T15:05:09.839Z,1.35
2022-09-14T15:07:37.850Z,2.30
2022-09-14T15:10:06.311Z,1.42
2022-09-14T15:12:33.932Z,1.58
2022-09-14T15:15:01.316Z,1.00
2022-09-14T15:17:28.033Z,1.30
2022-09-14T15:19:54.671Z,1.30
2022-09-14T15:22:21.493Z,1.42
2022-09-14T15:24:48.323Z,1.23
2022-09-14T15:27:15.062Z,1.17
2022-09-14T15:29:41.825Z,1.55
2022-09-14T15:32:08.635Z,1.48
2022-09-14T15:34:35.735Z,1.20
2022-09-14T15:37:02.567Z,1.35
2022-09-14T15:39:31.420Z,1.40
2022-09-14T15:41:58.519Z,1.20
2022-09-14T15:44:25.302Z,1.30
2022-09-14T15:46:52.919Z,1.17
2022-09-14T15:49:22.174Z,1.13
2022-09-14T15:51:51.135Z,0.95
2022-09-14T15:54:19.408Z,1.02
2022-09-14T15:56:50.696Z,1.10
2022-09-14T15:59:18.269Z,1.23
2022-09-14T16:01:45.156Z,1.50
2022-09-14T16:04:12.390Z,1.25
2022-09-14T16:06:39.083Z,1.02
2022-09-14T16:09:07.897Z,0.90
2022-09-14T16:11:35.730Z,1.17
2022-09-14T16:14:02.722Z,1.30
2022-09-14T16:16:29.587Z,1.25
2022-09-14T16:18:57.269Z,1.20
2022-09-14T16:21:27.655Z,1.10
2022-09-14T16:23:58.237Z,1.20
2022-09-14T16:26:28.804Z,1.23
2022-09-14T16:28:56.811Z,1.25
2022-09-14T16:31:29.672Z,1.20
2022-09-14T16:33:59.134Z,1.10
2022-09-14T16:36:28.989Z,1.23
2022-09-14T16:38:58.002Z,1.17
2022-09-14T16:41:25.291Z,1.27
2022-09-14T16:43:59.826Z,1.20
2022-09-14T16:46:28.263Z,1.17
2022-09-14T16:48:55.308Z,0.95
2022-09-14T16:51:24.409Z,0.85
2022-09-14T16:53:52.351Z,0.80
2022-09-14T16:56:24.773Z,0.73
2022-09-14T16:58:53.637Z,0.70
2022-09-14T17:01:20.368Z,0.70
2022-09-14T17:03:49.264Z,0.80
2022-09-14T17:06:19.146Z,0.90
2022-09-14T17:08:46.584Z,0.88
2022-09-14T17:11:15.178Z,0.77
2022-09-14T17:13:44.267Z,0.75
2022-09-14T17:16:13.690Z,0.85
2022-09-14T17:18:42.470Z,0.50
2022-09-14T17:21:12.585Z,0.70
2022-09-14T17:23:40.159Z,0.70
2022-09-14T17:26:09.778Z,0.85
2022-09-14T17:28:37.801Z,0.70
2022-09-14T17:31:06.967Z,0.52
2022-09-14T17:33:35.614Z,0.70
2022-09-14T17:36:04.338Z,0.70
2022-09-14T17:38:35.010Z,0.95
2022-09-14T17:41:04.817Z,0.60
2022-09-14T17:43:32.691Z,0.57
2022-09-14T17:45:59.544Z,0.80
2022-09-14T17:48:27.776Z,0.50
2022-09-14T17:50:55.084Z,0.75
2022-09-14T17:53:22.461Z,0.60
2022-09-14T17:55:49.255Z,0.70
2022-09-14T17:58:19.625Z,0.80
2022-09-14T18:00:46.680Z,0.60
2022-09-14T18:03:13.351Z,0.88
2022-09-14T18:05:40.061Z,0.80
2022-09-14T18:08:06.882Z,0.80
2022-09-14T18:10:36.366Z,0.63
2022-09-14T18:13:03.050Z,0.50
2022-09-14T18:15:31.073Z,0.77
2022-09-14T18:17:57.995Z,0.70
2022-09-14T18:20:24.694Z,0.65
2022-09-14T18:22:52.478Z,0.60
2022-09-14T18:25:19.170Z,0.57
2022-09-14T18:27:45.844Z,0.85
2022-09-14T18:30:13.889Z,0.82
2022-09-14T18:32:40.603Z,0.65
2022-09-14T18:35:08.123Z,0.63
2022-09-14T18:37:34.863Z,0.80
2022-09-14T18:40:01.802Z,0.63
2022-09-14T18:42:28.470Z,0.90
2022-09-14T18:44:56.264Z,0.65
2022-09-14T18:47:23.080Z,0.90
2022-09-14T18:49:50.074Z,1.00
2022-09-14T18:52:19.557Z,0.80
2022-09-14T18:54:46.231Z,0.70
2022-09-14T18:57:14.411Z,0.93
2022-09-14T18:59:41.080Z,0.95
2022-09-14T19:02:09.786Z,1.42
2022-09-14T19:04:37.327Z,0.80
2022-09-14T19:07:04.791Z,1.00
2022-09-14T19:09:31.772Z,0.93
2022-09-14T19:11:58.418Z,0.82
2022-09-14T19:14:25.108Z,0.80
2022-09-14T19:16:51.771Z,1.38
2022-09-14T19:19:18.652Z,0.90
2022-09-14T19:21:45.397Z,1.05
2022-09-14T19:24:14.827Z,1.20
2022-09-14T19:26:46.911Z,1.00
2022-09-14T19:29:15.292Z,1.00
2022-09-14T19:31:42.355Z,0.80
2022-09-14T19:34:10.645Z,2.17
2022-09-14T19:36:37.370Z,1.13
2022-09-14T19:39:04.845Z,1.00
2022-09-14T19:41:33.148Z,1.00
2022-09-14T19:44:00.995Z,1.20
2022-09-14T19:46:28.156Z,0.93
2022-09-14T19:48:55.554Z,1.30
2022-09-14T19:51:25.531Z,1.20
2022-09-14T19:53:54.818Z,1.38
2022-09-14T19:56:25.457Z,1.13
2022-09-14T19:58:53.895Z,1.20
2022-09-14T20:01:22.273Z,1.63
2022-09-14T20:03:49.900Z,1.40
2022-09-14T20:06:21.007Z,1.55
2022-09-14T20:08:48.952Z,1.30
2022-09-14T20:11:20.170Z,1.35
2022-09-14T20:13:50.605Z,1.42
2022-09-14T20:16:21.811Z,2.20
2022-09-14T20:18:49.881Z,1.48
2022-09-14T20:21:19.611Z,1.27
2022-09-14T20:24:11.484Z,1.10
2022-09-14T20:26:33.419Z,1.25
2022-09-14T20:29:01.139Z,1.45
2022-09-14T20:31:29.140Z,1.35
2022-09-14T20:33:56.888Z,1.20
2022-09-14T20:36:25.164Z,1.45
2022-09-14T20:38:57.046Z,1.48
2022-09-14T20:41:26.858Z,1.75
2022-09-14T20:43:54.314Z,1.60
2022-09-14T20:46:26.702Z,1.75
2022-09-14T20:48:54.122Z,1.55
2022-09-14T20:51:22.291Z,1.50
2022-09-14T20:53:48.962Z,1.60
2022-09-14T20:56:21.729Z,1.50
2022-09-14T20:58:49.402Z,1.80
2022-09-14T21:01:18.477Z,1.75
2022-09-14T21:03:46.755Z,1.75
2022-09-14T21:06:16.454Z,1.58
2022-09-14T21:08:43.418Z,1.75
2022-09-14T21:11:16.486Z,1.20
2022-09-14T21:13:43.865Z,1.83
2022-09-14T21:16:23.449Z,1.30
2022-09-14T21:18:57.210Z,1.80
2022-09-14T21:21:25.018Z,1.95
2022-09-14T21:23:52.303Z,1.80
2022-09-14T21:26:20.095Z,1.70
2022-09-14T21:28:47.013Z,1.67
2022-09-14T21:31:20.853Z,1.60
2022-09-14T21:33:50.992Z,1.85
2022-09-14T21:36:20.873Z,1.85
2022-09-14T21:38:53.023Z,1.63
2022-09-14T21:41:21.507Z,1.58
2022-09-14T21:43:48.235Z,1.75
2022-09-14T21:46:15.737Z,1.52
2022-09-14T21:48:43.070Z,2.03
2022-09-14T21:51:20.062Z,2.00
2022-09-14T21:53:55.192Z,1.55
2022-09-14T21:56:23.539Z,1.75
2022-09-14T21:58:52.013Z,1.92
2022-09-14T22:01:19.470Z,1.50
2022-09-14T22:03:46.737Z,2.10
2022-09-14T22:06:16.217Z,2.53
2022-09-14T22:08:43.998Z,1.73
2022-09-14T22:11:14.604Z,1.83
2022-09-14T22:13:41.725Z,1.75
2022-09-14T22:16:16.276Z,2.40
2022-09-14T22:18:49.959Z,2.08
2022-09-14T22:21:17.519Z,1.63
2022-09-14T22:23:47.966Z,1.60
2022-09-14T22:26:14.609Z,1.65
2022-09-14T22:28:41.358Z,2.33
2022-09-14T22:31:09.197Z,1.60
2022-09-14T22:33:36.246Z,1.77
2022-09-14T22:36:03.881Z,1.67
2022-09-14T22:38:34.167Z,1.67
2022-09-14T22:41:03.057Z,1.60
2022-09-14T22:43:30.551Z,1.70
2022-09-14T22:45:57.334Z,1.75
2022-09-14T22:48:24.246Z,2.03
2022-09-14T22:50:53.021Z,2.30
2022-09-14T22:53:20.551Z,1.98
2022-09-14T22:55:47.568Z,1.52
2022-09-14T22:58:16.863Z,2.10
2022-09-14T23:00:43.891Z,2.03
2022-09-14T23:03:11.310Z,2.28
2022-09-14T23:05:39.302Z,1.75
2022-09-14T23:08:07.968Z,1.95
2022-09-14T23:10:38.091Z,1.98
2022-09-14T23:13:04.713Z,2.88
2022-09-14T23:15:31.668Z,2.13
2022-09-14T23:17:58.273Z,2.20
2022-09-14T23:20:24.983Z,2.30
2022-09-14T23:22:51.609Z,2.88
2022-09-14T23:25:18.279Z,2.25
2022-09-14T23:27:45.022Z,2.63
2022-09-14T23:30:12.343Z,2.45
2022-09-14T23:32:38.955Z,2.30
2022-09-14T23:35:07.239Z,2.40
2022-09-14T23:37:34.189Z,3.10
2022-09-14T23:40:01.011Z,2.65
2022-09-14T23:42:27.743Z,2.50
2022-09-14T23:44:54.370Z,2.63
2022-09-14T23:47:21.423Z,2.40
2022-09-14T23:49:48.023Z,2.30
2022-09-14T23:52:15.085Z,2.63
2022-09-14T23:54:42.691Z,2.88
2022-09-14T23:57:09.448Z,2.70
2022-09-14T23:59:36.161Z,2.55
